Tongliao, China
Current Conditions -  °F | °C
As of 2:00 AM on Saturday 25 Oct 2014 (Local Time) from ZYTX Reporting Station
Clear Clear  
Wind Chill: 64°   Ceiling: Unl
Heat Index: 64°   Visibility: 4mi
Dew Point: 52°   Wind: 9mph
Humidity: 64%   Direction: 170°S
Pressure: 29.83"   Gusts: NA
Location:  43.62°N, 122.27°E
Report Text: ZYTX 241800Z 17004MPS 6000 NSC 18/11 Q1010 NOSIG
Loading
Personal Weather Stations






























Interactive Weather Map
Tropical Storm Tracking
New forecast layout! Learn more

10-Day Weather Forecast

Advertisements
Track Severe Weather on mobile